createdAt,value
2024-02-15T00:00:39.796Z,55.20
2024-02-15T00:01:41.431Z,55.28
2024-02-15T00:02:44.282Z,54.74
2024-02-15T00:03:45.976Z,54.67
2024-02-15T00:04:47.661Z,54.72
2024-02-15T00:05:49.641Z,54.92
2024-02-15T00:06:51.397Z,54.90
2024-02-15T00:07:52.955Z,55.35
2024-02-15T00:08:54.548Z,55.42
2024-02-15T00:09:56.277Z,55.25
2024-02-15T00:10:57.993Z,55.48
2024-02-15T00:12:00.984Z,54.93
2024-02-15T00:13:03.157Z,54.66
2024-02-15T00:14:04.745Z,54.79
2024-02-15T00:15:06.683Z,54.81
2024-02-15T00:16:08.281Z,55.08
2024-02-15T00:17:09.874Z,55.08
2024-02-15T00:18:11.834Z,55.14
2024-02-15T00:19:14.550Z,55.08
2024-02-15T00:20:18.808Z,55.03
2024-02-15T00:21:20.442Z,54.81
2024-02-15T00:22:22.444Z,54.63
2024-02-15T00:23:24.069Z,54.80
2024-02-15T00:24:25.672Z,55.16
2024-02-15T00:25:27.319Z,55.45
2024-02-15T00:26:28.967Z,55.66
2024-02-15T00:27:30.544Z,55.86
2024-02-15T00:28:32.127Z,56.08
2024-02-15T00:29:35.664Z,55.92
2024-02-15T00:30:38.125Z,55.92
2024-02-15T00:31:39.910Z,55.83
2024-02-15T00:32:41.838Z,55.68
2024-02-15T00:33:44.366Z,55.72
2024-02-15T00:34:46.491Z,55.74
2024-02-15T00:35:53.267Z,55.66
2024-02-15T00:36:54.969Z,55.70
2024-02-15T00:37:56.617Z,55.78
2024-02-15T00:38:58.347Z,55.87
2024-02-15T00:39:59.917Z,55.39
2024-02-15T00:41:01.578Z,55.26
2024-02-15T00:42:03.407Z,55.22
2024-02-15T00:43:05.898Z,54.58
2024-02-15T00:44:07.491Z,54.43
2024-02-15T00:45:10.301Z,54.28
2024-02-15T00:46:12.000Z,54.16
2024-02-15T00:47:14.220Z,54.35
2024-02-15T00:48:15.987Z,54.52
2024-02-15T00:49:17.904Z,54.28
2024-02-15T00:50:19.786Z,54.20
2024-02-15T00:51:21.604Z,54.04
2024-02-15T00:52:24.619Z,53.76
2024-02-15T00:53:26.258Z,53.98
2024-02-15T00:54:27.949Z,53.89
2024-02-15T00:55:29.521Z,54.04
2024-02-15T00:56:32.285Z,53.91
2024-02-15T00:57:34.146Z,53.66
2024-02-15T00:58:35.733Z,53.75
2024-02-15T00:59:37.447Z,53.71
2024-02-15T01:00:39.376Z,53.54
2024-02-15T01:01:42.064Z,53.55
2024-02-15T01:02:43.767Z,53.67
2024-02-15T01:03:45.444Z,53.79
2024-02-15T01:04:47.516Z,53.85
2024-02-15T01:05:49.098Z,53.68
2024-02-15T01:06:50.736Z,53.67
2024-02-15T01:07:53.206Z,53.81
2024-02-15T01:08:54.849Z,53.96
2024-02-15T01:09:56.595Z,54.17
2024-02-15T01:10:58.159Z,54.18
2024-02-15T01:11:59.797Z,54.23
2024-02-15T01:13:01.643Z,54.42
2024-02-15T01:14:03.395Z,54.67
2024-02-15T01:15:05.537Z,54.88
2024-02-15T01:16:08.488Z,54.97
2024-02-15T01:17:10.223Z,54.90
2024-02-15T01:18:12.561Z,55.00
2024-02-15T01:19:14.284Z,54.97
2024-02-15T01:20:16.589Z,55.16
2024-02-15T01:21:18.217Z,55.21
2024-02-15T01:22:19.942Z,55.16
2024-02-15T01:23:23.559Z,55.11
2024-02-15T01:24:26.508Z,55.11
2024-02-15T01:25:29.105Z,55.25
2024-02-15T01:26:30.978Z,55.27
2024-02-15T01:27:32.591Z,55.49
2024-02-15T01:28:34.262Z,55.48
2024-02-15T01:29:37.040Z,55.50
2024-02-15T01:30:38.857Z,54.72
2024-02-15T01:31:40.725Z,54.87
2024-02-15T01:32:43.973Z,54.78
2024-02-15T01:33:49.449Z,55.05
2024-02-15T01:34:55.089Z,55.08
2024-02-15T01:35:57.558Z,54.87
2024-02-15T01:36:59.194Z,55.07
2024-02-15T01:38:00.782Z,55.13
2024-02-15T01:39:02.398Z,54.70
2024-02-15T01:40:04.727Z,54.77
2024-02-15T01:41:06.295Z,54.16
2024-02-15T01:42:08.017Z,54.39
2024-02-15T01:43:09.599Z,54.02
2024-02-15T01:44:12.808Z,54.06
2024-02-15T01:45:14.661Z,54.03
2024-02-15T01:46:17.084Z,53.95
2024-02-15T01:47:20.821Z,53.70
2024-02-15T01:48:22.756Z,53.48
2024-02-15T01:49:25.750Z,53.21
2024-02-15T01:50:27.571Z,53.21
2024-02-15T01:51:29.248Z,53.28
2024-02-15T01:52:32.454Z,53.44
2024-02-15T01:53:34.622Z,53.42
2024-02-15T01:54:37.139Z,53.51
2024-02-15T01:55:39.022Z,53.63
2024-02-15T01:56:40.696Z,53.61
2024-02-15T01:57:46.088Z,53.62
2024-02-15T01:58:48.147Z,53.69
2024-02-15T01:59:53.169Z,54.56
2024-02-15T02:00:57.904Z,54.63
2024-02-15T02:01:59.683Z,55.08
2024-02-15T02:03:04.427Z,54.76
2024-02-15T02:04:06.272Z,54.78
2024-02-15T02:05:08.950Z,54.47
2024-02-15T02:06:10.707Z,54.62
2024-02-15T02:07:12.382Z,54.11
2024-02-15T02:08:14.232Z,54.21
2024-02-15T02:09:16.991Z,53.99
2024-02-15T02:10:19.681Z,54.11
2024-02-15T02:11:21.316Z,54.53
2024-02-15T02:12:23.353Z,54.73
2024-02-15T02:13:25.196Z,54.55
2024-02-15T02:14:26.932Z,54.58
2024-02-15T02:15:29.226Z,54.45
2024-02-15T02:16:36.386Z,54.60
2024-02-15T02:17:38.355Z,54.58
2024-02-15T02:18:40.177Z,54.55
2024-02-15T02:19:43.888Z,54.58
2024-02-15T02:20:46.834Z,54.84
2024-02-15T02:21:51.713Z,54.49
2024-02-15T02:22:58.558Z,54.29
2024-02-15T02:24:02.292Z,54.62
2024-02-15T02:25:09.675Z,54.52
2024-02-15T02:26:11.903Z,54.53
2024-02-15T02:27:14.925Z,54.56
2024-02-15T02:28:19.878Z,54.47
2024-02-15T02:29:21.954Z,54.53
2024-02-15T02:30:24.449Z,54.78
2024-02-15T02:31:26.105Z,54.34
2024-02-15T02:32:28.342Z,54.57
2024-02-15T02:33:30.377Z,54.44
2024-02-15T02:34:32.260Z,54.84
2024-02-15T02:35:34.378Z,54.65
2024-02-15T02:36:37.178Z,54.61
2024-02-15T02:37:41.945Z,55.08
2024-02-15T02:38:46.490Z,54.81
2024-02-15T02:39:48.218Z,54.63
2024-02-15T02:40:49.821Z,54.79
2024-02-15T02:41:51.432Z,55.13
2024-02-15T02:42:54.886Z,55.23
2024-02-15T02:43:58.394Z,55.36
2024-02-15T02:45:00.013Z,55.83
2024-02-15T02:46:01.572Z,55.62
2024-02-15T02:47:03.151Z,55.52
2024-02-15T02:48:05.594Z,55.59
2024-02-15T02:49:08.740Z,55.65
2024-02-15T02:50:10.781Z,55.71
2024-02-15T02:51:12.454Z,55.61
2024-02-15T02:52:14.147Z,55.33
2024-02-15T02:53:16.387Z,55.10
2024-02-15T02:54:18.638Z,55.09
2024-02-15T02:55:20.314Z,55.35
2024-02-15T02:56:21.872Z,55.24
2024-02-15T02:57:23.407Z,55.21
2024-02-15T02:58:24.981Z,55.09
2024-02-15T02:59:26.531Z,55.41
2024-02-15T03:00:28.794Z,55.37
2024-02-15T03:01:30.519Z,55.26
2024-02-15T03:02:32.120Z,55.26
2024-02-15T03:03:33.756Z,55.03
2024-02-15T03:04:35.341Z,54.96
2024-02-15T03:05:37.134Z,55.04
2024-02-15T03:06:38.950Z,54.98
2024-02-15T03:07:44.278Z,55.52
2024-02-15T03:08:45.917Z,55.65
2024-02-15T03:09:48.108Z,55.71
2024-02-15T03:10:49.700Z,55.64
2024-02-15T03:11:51.301Z,55.63
2024-02-15T03:12:53.704Z,55.60
2024-02-15T03:13:55.338Z,55.61
2024-02-15T03:14:56.982Z,55.54
2024-02-15T03:15:58.677Z,55.27
2024-02-15T03:17:00.360Z,55.29
2024-02-15T03:18:07.923Z,55.55
2024-02-15T03:19:12.256Z,55.73
2024-02-15T03:20:22.053Z,56.35
2024-02-15T03:21:24.225Z,57.00
2024-02-15T03:22:30.706Z,57.61
2024-02-15T03:23:34.636Z,57.89
2024-02-15T03:24:36.253Z,58.15
2024-02-15T03:25:38.457Z,58.38
2024-02-15T03:26:41.371Z,58.81
2024-02-15T03:27:42.932Z,58.61
2024-02-15T03:28:45.704Z,58.83
2024-02-15T03:29:48.205Z,59.34
2024-02-15T03:30:51.204Z,59.41
2024-02-15T03:31:54.891Z,59.59
2024-02-15T03:32:56.718Z,59.71
2024-02-15T03:34:00.444Z,59.95
2024-02-15T03:35:02.224Z,60.13
2024-02-15T03:36:04.262Z,60.70
2024-02-15T03:37:06.066Z,60.96
2024-02-15T03:38:07.987Z,60.92
2024-02-15T03:39:09.871Z,61.21
2024-02-15T03:40:12.136Z,61.26
2024-02-15T03:41:13.814Z,61.23
2024-02-15T03:42:15.455Z,61.05
2024-02-15T03:43:17.074Z,61.17
2024-02-15T03:44:19.683Z,61.52
2024-02-15T03:45:22.165Z,61.59
2024-02-15T03:46:24.946Z,62.00
2024-02-15T03:47:26.497Z,62.48
2024-02-15T03:48:28.201Z,62.77
2024-02-15T03:49:31.799Z,62.67
2024-02-15T03:50:33.867Z,63.04
2024-02-15T03:51:36.074Z,63.17
2024-02-15T03:52:38.831Z,62.99
2024-02-15T03:53:40.414Z,63.68
2024-02-15T03:54:44.319Z,63.87
2024-02-15T03:55:46.184Z,64.82
2024-02-15T03:56:54.126Z,65.08
2024-02-15T03:57:58.194Z,65.09
2024-02-15T03:59:00.350Z,65.48
2024-02-15T04:00:02.236Z,65.19
2024-02-15T04:01:07.814Z,65.45
2024-02-15T04:02:13.808Z,65.63
2024-02-15T04:03:15.401Z,65.96
2024-02-15T04:04:17.055Z,65.94
2024-02-15T04:05:20.249Z,66.32
2024-02-15T04:06:22.212Z,66.76
2024-02-15T04:07:28.016Z,66.58
2024-02-15T04:08:29.843Z,66.07
2024-02-15T04:09:31.401Z,66.00
2024-02-15T04:10:32.973Z,66.03
2024-02-15T04:11:34.978Z,66.25
2024-02-15T04:12:36.570Z,66.02
2024-02-15T04:13:38.562Z,65.87
2024-02-15T04:14:50.350Z,65.86
2024-02-15T04:15:54.056Z,65.37
2024-02-15T04:16:55.775Z,65.80
2024-02-15T04:17:58.681Z,65.81
2024-02-15T04:19:00.854Z,65.40
2024-02-15T04:20:05.057Z,65.25
2024-02-15T04:21:08.499Z,65.45
2024-02-15T04:22:10.272Z,65.05
2024-02-15T04:23:12.650Z,65.31
2024-02-15T04:24:15.590Z,64.89
2024-02-15T04:25:19.020Z,64.70
2024-02-15T04:26:21.424Z,64.85
2024-02-15T04:27:23.112Z,64.71
2024-02-15T04:28:26.410Z,64.95
2024-02-15T04:29:27.977Z,64.93
2024-02-15T04:30:29.569Z,64.93
2024-02-15T04:31:31.283Z,64.87
2024-02-15T04:32:35.639Z,64.42
2024-02-15T04:33:37.653Z,64.17
2024-02-15T04:34:39.829Z,64.01
2024-02-15T04:35:41.538Z,64.02
2024-02-15T04:36:47.184Z,63.93
2024-02-15T04:37:50.383Z,63.95
2024-02-15T04:38:54.784Z,64.07
2024-02-15T04:39:57.646Z,64.25
2024-02-15T04:41:01.374Z,63.99
2024-02-15T04:42:06.007Z,64.27
2024-02-15T04:43:09.846Z,64.54
2024-02-15T04:44:13.159Z,64.37
2024-02-15T04:45:16.738Z,64.33
2024-02-15T04:46:21.931Z,64.52
2024-02-15T04:47:23.753Z,64.73
2024-02-15T04:48:26.174Z,64.33
2024-02-15T04:49:30.256Z,64.36
2024-02-15T04:50:32.121Z,64.07
2024-02-15T04:51:33.707Z,63.86
2024-02-15T04:52:35.903Z,64.23
2024-02-15T04:53:39.496Z,64.32
2024-02-15T04:54:41.128Z,64.18
2024-02-15T04:55:42.715Z,64.08
2024-02-15T04:56:44.296Z,63.84
2024-02-15T04:57:48.443Z,63.94
2024-02-15T04:58:51.930Z,63.90
2024-02-15T04:59:53.686Z,63.50
2024-02-15T05:00:59.962Z,63.51
2024-02-15T05:02:02.189Z,63.43
2024-02-15T05:03:04.513Z,63.08
2024-02-15T05:04:08.592Z,63.06
2024-02-15T05:05:11.207Z,62.68
2024-02-15T05:06:16.030Z,62.41
2024-02-15T05:07:18.214Z,62.36
2024-02-15T05:08:19.807Z,62.41
2024-02-15T05:09:21.430Z,62.22
2024-02-15T05:10:23.047Z,61.60
2024-02-15T05:11:24.650Z,61.87
2024-02-15T05:12:26.299Z,61.76
2024-02-15T05:13:27.893Z,61.78
2024-02-15T05:14:29.911Z,61.68
2024-02-15T05:15:32.064Z,61.78
2024-02-15T05:16:43.099Z,61.76
2024-02-15T05:17:44.924Z,61.20
2024-02-15T05:18:46.838Z,60.97
2024-02-15T05:19:49.052Z,60.97
2024-02-15T05:20:50.765Z,60.64
2024-02-15T05:21:52.419Z,60.62
2024-02-15T05:22:54.498Z,60.56
2024-02-15T05:23:57.534Z,59.99
2024-02-15T05:24:59.479Z,59.89
2024-02-15T05:26:01.003Z,59.76
2024-02-15T05:27:02.680Z,59.66
2024-02-15T05:28:06.948Z,59.92
2024-02-15T05:29:09.081Z,59.70
2024-02-15T05:30:12.907Z,59.61
2024-02-15T05:31:18.303Z,60.03
2024-02-15T05:32:21.320Z,59.95
2024-02-15T05:33:23.172Z,60.23
2024-02-15T05:34:26.871Z,60.20
2024-02-15T05:35:29.415Z,60.42
2024-02-15T05:36:31.355Z,60.57
2024-02-15T05:37:35.930Z,60.66
2024-02-15T05:39:40.767Z,60.55
2024-02-15T05:40:43.408Z,60.46
2024-02-15T05:41:45.115Z,60.33
2024-02-15T05:42:47.436Z,60.60
2024-02-15T05:43:55.400Z,60.83
2024-02-15T05:45:21.017Z,60.98
2024-02-15T05:46:22.621Z,61.26
2024-02-15T05:47:25.273Z,61.44
2024-02-15T05:48:29.106Z,61.54
2024-02-15T05:49:30.821Z,61.37
2024-02-15T05:50:33.085Z,61.25
2024-02-15T05:51:35.362Z,60.92
2024-02-15T05:52:37.437Z,60.92
2024-02-15T05:53:39.137Z,61.08
2024-02-15T05:54:42.605Z,60.97
2024-02-15T05:55:45.709Z,61.13
2024-02-15T05:56:52.888Z,62.25
2024-02-15T05:57:54.789Z,63.16
2024-02-15T05:58:56.412Z,63.70
2024-02-15T06:00:04.505Z,64.02
2024-02-15T06:01:13.060Z,64.40
2024-02-15T06:02:14.774Z,64.88
2024-02-15T06:03:17.690Z,64.65
2024-02-15T06:04:19.500Z,64.86
2024-02-15T06:05:21.640Z,64.99
2024-02-15T06:06:24.396Z,65.40
2024-02-15T06:07:26.489Z,65.08
2024-02-15T06:08:30.834Z,64.95
2024-02-15T06:09:34.855Z,64.61
2024-02-15T06:10:36.518Z,64.17
2024-02-15T06:11:39.544Z,64.33
2024-02-15T06:12:42.039Z,64.13
2024-02-15T06:13:43.614Z,63.88
2024-02-15T06:14:45.221Z,64.02
2024-02-15T06:15:47.643Z,64.46
2024-02-15T06:16:49.693Z,64.30
2024-02-15T06:17:51.347Z,64.10
2024-02-15T06:18:53.481Z,63.96
2024-02-15T06:19:55.499Z,63.94
2024-02-15T06:21:03.810Z,64.03
2024-02-15T06:22:05.889Z,64.05
2024-02-15T06:23:09.192Z,63.93
2024-02-15T06:24:11.732Z,63.73
2024-02-15T06:25:14.910Z,63.57
2024-02-15T06:26:16.484Z,63.29
2024-02-15T06:27:18.813Z,63.13
2024-02-15T06:28:41.258Z,63.17
2024-02-15T06:30:01.227Z,63.14
2024-02-15T06:31:21.420Z,62.93
2024-02-15T06:32:41.556Z,62.58
2024-02-15T06:34:02.116Z,61.57
2024-02-15T06:35:22.601Z,61.58
2024-02-15T06:36:42.512Z,61.75
2024-02-15T06:38:02.619Z,61.84
2024-02-15T06:39:22.515Z,61.56
2024-02-15T06:40:24.897Z,61.43
2024-02-15T06:41:27.512Z,61.61
2024-02-15T06:42:32.192Z,61.58
2024-02-15T06:43:34.403Z,61.22
2024-02-15T06:44:36.632Z,61.37
2024-02-15T06:45:39.167Z,61.38
2024-02-15T06:46:40.713Z,60.69
2024-02-15T06:47:48.034Z,60.69
2024-02-15T06:48:49.896Z,59.58
2024-02-15T06:49:53.132Z,59.90
2024-02-15T06:50:54.996Z,59.28
2024-02-15T06:51:57.368Z,59.64
2024-02-15T06:52:58.977Z,59.72
2024-02-15T06:54:00.584Z,58.73
2024-02-15T06:55:02.183Z,57.26
2024-02-15T06:56:03.998Z,56.11
2024-02-15T06:57:06.728Z,55.89
2024-02-15T06:58:08.357Z,55.45
2024-02-15T06:59:11.393Z,54.47
2024-02-15T07:00:17.007Z,53.63
2024-02-15T07:01:18.829Z,53.37
2024-02-15T07:02:20.476Z,54.55
2024-02-15T07:03:23.766Z,51.65
2024-02-15T07:04:26.999Z,51.57
2024-02-15T07:05:29.217Z,51.14
2024-02-15T07:06:32.907Z,50.98
2024-02-15T07:07:35.596Z,50.52
2024-02-15T07:08:37.226Z,50.20
2024-02-15T07:09:39.304Z,49.91
2024-02-15T07:10:41.236Z,49.68
2024-02-15T07:11:43.015Z,50.08
2024-02-15T07:12:47.549Z,49.37
2024-02-15T07:13:49.600Z,48.72
2024-02-15T07:14:51.699Z,48.75
2024-02-15T07:15:53.456Z,48.72
2024-02-15T07:16:58.040Z,48.35
2024-02-15T07:18:00.298Z,47.81
2024-02-15T07:19:04.682Z,47.66
2024-02-15T07:20:07.162Z,48.18
2024-02-15T07:21:15.211Z,48.01
2024-02-15T07:22:17.852Z,48.11
2024-02-15T07:23:19.687Z,47.68
2024-02-15T07:24:21.354Z,47.25
2024-02-15T07:25:23.039Z,46.75
2024-02-15T07:26:26.077Z,45.83
2024-02-15T07:27:27.996Z,45.89
2024-02-15T07:28:31.229Z,45.36
2024-02-15T07:29:33.706Z,45.27
2024-02-15T07:30:36.917Z,44.99
2024-02-15T07:31:39.990Z,44.63
2024-02-15T07:32:41.872Z,44.26
2024-02-15T07:33:46.462Z,44.06
2024-02-15T07:34:49.098Z,44.36
2024-02-15T07:35:54.765Z,44.21
2024-02-15T07:36:56.680Z,43.82
2024-02-15T07:37:59.976Z,43.14
2024-02-15T07:39:04.997Z,42.75
2024-02-15T07:40:09.323Z,43.08
2024-02-15T07:41:10.856Z,43.30
2024-02-15T07:42:13.891Z,43.13
2024-02-15T07:43:16.095Z,43.50
2024-02-15T07:44:18.673Z,43.47
2024-02-15T07:45:20.340Z,43.50
2024-02-15T07:46:23.056Z,43.42
2024-02-15T07:47:25.755Z,43.04
2024-02-15T07:48:28.183Z,42.85
2024-02-15T07:49:30.103Z,42.25
2024-02-15T07:50:32.562Z,42.66
2024-02-15T07:51:34.221Z,42.70
2024-02-15T07:52:35.852Z,42.85
2024-02-15T07:53:38.919Z,42.26
2024-02-15T07:54:40.796Z,42.13
2024-02-15T07:55:45.346Z,41.62
2024-02-15T07:56:46.922Z,41.57
2024-02-15T07:57:49.693Z,41.58
2024-02-15T07:58:54.138Z,41.26
2024-02-15T07:59:56.438Z,41.65
2024-02-15T08:00:58.095Z,42.17
2024-02-15T08:01:59.684Z,41.76
2024-02-15T08:03:01.801Z,41.55
2024-02-15T08:04:03.568Z,41.64
2024-02-15T08:05:07.432Z,41.56
2024-02-15T08:06:09.268Z,41.64
2024-02-15T08:07:15.721Z,41.60
2024-02-15T08:08:17.398Z,41.46
2024-02-15T08:09:21.272Z,41.41
2024-02-15T08:10:23.291Z,41.12
2024-02-15T08:11:27.515Z,41.13
2024-02-15T08:12:29.430Z,40.84
2024-02-15T08:13:31.278Z,40.68
2024-02-15T08:14:32.987Z,40.44
2024-02-15T08:15:34.853Z,40.56
2024-02-15T08:16:36.548Z,39.97
2024-02-15T08:17:41.269Z,40.36
2024-02-15T08:18:45.279Z,40.50
2024-02-15T08:19:47.619Z,40.27
2024-02-15T08:20:49.401Z,40.23
2024-02-15T08:21:52.276Z,40.57
2024-02-15T08:22:53.899Z,40.10
2024-02-15T08:23:56.639Z,39.98
2024-02-15T08:24:58.346Z,40.04
2024-02-15T08:25:59.941Z,40.00
2024-02-15T08:27:01.726Z,40.08
2024-02-15T08:28:06.648Z,39.93
2024-02-15T08:29:08.576Z,40.06
2024-02-15T08:30:14.582Z,39.97
2024-02-15T08:31:16.463Z,40.21
2024-02-15T08:32:18.029Z,39.99
2024-02-15T08:33:20.761Z,39.85
2024-02-15T08:34:22.460Z,39.92
2024-02-15T08:35:24.522Z,40.11
2024-02-15T08:36:26.305Z,39.71
2024-02-15T08:37:27.937Z,39.31
2024-02-15T08:38:29.524Z,39.37
2024-02-15T08:39:31.092Z,39.39
2024-02-15T08:40:32.698Z,39.10
2024-02-15T08:41:34.355Z,39.31
2024-02-15T08:42:35.935Z,39.69
2024-02-15T08:43:40.292Z,39.84
2024-02-15T08:44:42.052Z,39.79
2024-02-15T08:45:44.921Z,39.17
2024-02-15T08:46:48.817Z,39.29
2024-02-15T08:47:54.011Z,39.16
2024-02-15T08:48:56.069Z,38.89
2024-02-15T08:50:00.324Z,39.33
2024-02-15T08:51:02.620Z,38.76
2024-02-15T08:52:05.019Z,39.48
2024-02-15T08:53:07.832Z,39.57
2024-02-15T08:54:10.104Z,40.03
2024-02-15T08:55:15.818Z,39.35
2024-02-15T08:56:17.675Z,39.85
2024-02-15T08:57:20.501Z,39.72
2024-02-15T08:58:25.215Z,39.75
2024-02-15T08:59:28.362Z,39.42
2024-02-15T09:00:30.293Z,39.24
2024-02-15T09:01:31.906Z,39.47
2024-02-15T09:02:34.211Z,39.21
2024-02-15T09:03:36.131Z,39.42
2024-02-15T09:04:37.892Z,39.61
2024-02-15T09:05:41.906Z,40.23
2024-02-15T09:06:44.474Z,40.53
2024-02-15T09:07:51.291Z,40.17
2024-02-15T09:08:52.904Z,40.79
2024-02-15T09:09:56.378Z,40.96
2024-02-15T09:10:59.431Z,39.84
2024-02-15T09:12:07.316Z,39.39
2024-02-15T09:13:09.148Z,39.74
2024-02-15T09:14:11.061Z,40.58
2024-02-15T09:15:12.663Z,40.84
2024-02-15T09:16:14.450Z,41.12
2024-02-15T09:17:16.043Z,41.25
2024-02-15T09:18:22.339Z,40.71
2024-02-15T09:19:25.276Z,39.85
2024-02-15T09:20:29.582Z,39.53
2024-02-15T09:21:31.266Z,39.60
2024-02-15T09:22:34.065Z,39.48
2024-02-15T09:23:35.815Z,39.63
2024-02-15T09:24:38.310Z,39.47
2024-02-15T09:25:40.017Z,39.55
2024-02-15T09:26:41.633Z,39.32
2024-02-15T09:27:43.791Z,39.64
2024-02-15T09:28:45.397Z,39.33
2024-02-15T09:29:47.524Z,39.15
2024-02-15T09:30:52.356Z,39.61
2024-02-15T09:31:54.208Z,39.32
2024-02-15T09:32:55.890Z,39.07
2024-02-15T09:33:58.914Z,38.84
2024-02-15T09:35:00.827Z,38.83
2024-02-15T09:36:02.514Z,38.92
2024-02-15T09:37:04.351Z,38.94
2024-02-15T09:38:07.316Z,38.25
2024-02-15T09:39:08.970Z,38.05
2024-02-15T09:40:12.974Z,38.85
2024-02-15T09:41:14.618Z,38.71
2024-02-15T09:42:16.344Z,39.91
2024-02-15T09:43:18.447Z,39.16
2024-02-15T09:44:20.005Z,38.21
2024-02-15T09:45:22.179Z,39.00
2024-02-15T09:46:24.163Z,38.74
2024-02-15T09:47:27.605Z,38.41
2024-02-15T09:48:32.088Z,38.26
2024-02-15T09:49:37.691Z,38.01
2024-02-15T09:50:43.923Z,38.46
2024-02-15T09:51:48.603Z,38.22
2024-02-15T09:52:55.511Z,37.87
2024-02-15T09:53:59.357Z,38.18
2024-02-15T09:55:04.045Z,37.73
2024-02-15T09:56:07.472Z,37.40
2024-02-15T09:57:09.227Z,38.08
2024-02-15T09:58:13.591Z,38.20
2024-02-15T09:59:15.551Z,37.93
2024-02-15T10:00:18.614Z,38.10
2024-02-15T10:01:26.261Z,38.25
2024-02-15T10:02:28.182Z,38.18
2024-02-15T10:03:32.503Z,37.96
2024-02-15T10:04:35.916Z,38.42
2024-02-15T10:05:40.872Z,38.46
2024-02-15T10:06:43.941Z,37.92
2024-02-15T10:07:46.852Z,38.32
2024-02-15T10:08:48.501Z,38.38
2024-02-15T10:09:50.151Z,38.54
2024-02-15T10:11:12.289Z,37.98
2024-02-15T10:12:13.971Z,37.87
2024-02-15T10:13:16.412Z,38.30
2024-02-15T10:14:18.060Z,38.76
2024-02-15T10:15:34.270Z,38.60
2024-02-15T10:16:36.719Z,39.22
2024-02-15T10:17:38.535Z,39.33
2024-02-15T10:18:43.063Z,39.45
2024-02-15T10:19:45.488Z,39.47
2024-02-15T10:20:59.247Z,38.95
2024-02-15T10:22:10.336Z,38.22
2024-02-15T10:23:13.535Z,38.33
2024-02-15T10:24:15.409Z,38.09
2024-02-15T10:25:18.495Z,39.04
2024-02-15T10:26:23.855Z,38.98
2024-02-15T10:27:25.600Z,39.83
2024-02-15T10:28:29.140Z,39.91
2024-02-15T10:29:31.891Z,39.33
2024-02-15T10:30:35.327Z,38.76
2024-02-15T10:31:37.880Z,38.54
2024-02-15T10:32:39.573Z,38.86
2024-02-15T10:33:41.485Z,38.90
2024-02-15T10:34:46.391Z,38.61
2024-02-15T10:35:48.163Z,38.49
2024-02-15T10:36:51.498Z,38.21
2024-02-15T10:37:54.216Z,38.53
2024-02-15T10:39:12.224Z,38.50
2024-02-15T10:40:14.512Z,38.24
2024-02-15T10:41:16.877Z,38.83
2024-02-15T10:42:19.729Z,38.78
2024-02-15T10:43:22.728Z,38.84
2024-02-15T10:44:26.717Z,38.92
2024-02-15T10:45:29.416Z,39.33
2024-02-15T10:46:31.423Z,39.06
2024-02-15T10:47:33.805Z,39.59
2024-02-15T10:48:35.564Z,38.77
2024-02-15T10:49:37.710Z,38.52
2024-02-15T10:50:43.752Z,38.50
2024-02-15T10:51:46.119Z,38.54
2024-02-15T10:53:16.404Z,38.37
2024-02-15T10:54:29.697Z,38.66
2024-02-15T10:55:54.796Z,38.53
2024-02-15T10:57:05.114Z,39.09
2024-02-15T10:58:07.718Z,38.27
2024-02-15T10:59:19.646Z,38.26
2024-02-15T11:00:22.940Z,38.39
2024-02-15T11:01:26.114Z,37.99
2024-02-15T11:02:44.546Z,38.29
2024-02-15T11:03:53.701Z,38.23
2024-02-15T11:04:57.877Z,37.97
2024-02-15T11:06:02.210Z,38.25
2024-02-15T11:07:07.703Z,37.96
2024-02-15T11:08:11.350Z,38.22
2024-02-15T11:09:15.024Z,38.21
2024-02-15T11:10:18.288Z,37.84
2024-02-15T11:11:21.343Z,37.77
2024-02-15T11:12:25.020Z,38.58
2024-02-15T11:13:26.703Z,38.10
2024-02-15T11:14:30.375Z,37.77
2024-02-15T11:15:42.644Z,37.77
2024-02-15T11:16:44.864Z,37.75
2024-02-15T11:17:51.032Z,38.25
2024-02-15T11:18:53.713Z,38.46
2024-02-15T11:19:57.428Z,38.48
2024-02-15T11:21:00.604Z,37.98
2024-02-15T11:22:10.439Z,37.80
2024-02-15T11:23:14.136Z,37.70
2024-02-15T11:24:30.977Z,37.76
2024-02-15T11:25:38.184Z,37.52
2024-02-15T11:26:50.618Z,37.87
2024-02-15T11:27:52.290Z,38.25
2024-02-15T11:28:55.657Z,37.45
2024-02-15T11:30:14.201Z,37.67
2024-02-15T11:31:55.193Z,38.08
2024-02-15T11:32:58.215Z,38.26
2024-02-15T11:33:59.906Z,38.44
2024-02-15T11:35:12.668Z,38.01
2024-02-15T11:36:15.150Z,38.13
2024-02-15T11:37:59.679Z,37.95
2024-02-15T11:39:03.983Z,38.12
2024-02-15T11:40:10.627Z,37.85
2024-02-15T11:41:12.656Z,38.34
2024-02-15T11:42:29.995Z,37.59
2024-02-15T11:43:44.531Z,37.68
2024-02-15T11:44:46.177Z,38.00
2024-02-15T11:45:48.429Z,37.96
2024-02-15T11:46:56.575Z,37.96
2024-02-15T11:47:58.322Z,38.18
2024-02-15T11:49:05.285Z,38.49
2024-02-15T11:50:15.950Z,38.30
2024-02-15T11:51:35.050Z,38.19
2024-02-15T11:52:36.806Z,38.81
2024-02-15T11:53:38.948Z,38.20
2024-02-15T11:54:40.612Z,38.04
2024-02-15T11:55:43.122Z,37.92
2024-02-15T11:56:48.544Z,37.95
2024-02-15T11:58:12.104Z,38.46
2024-02-15T11:59:29.858Z,38.16
2024-02-15T12:00:51.283Z,38.10
2024-02-15T12:02:11.739Z,37.90
2024-02-15T12:03:34.672Z,38.32
2024-02-15T12:05:14.927Z,38.49
2024-02-15T12:06:38.427Z,38.29
2024-02-15T12:07:58.562Z,38.93
2024-02-15T12:09:18.778Z,38.65
2024-02-15T12:10:39.663Z,38.50
2024-02-15T12:12:00.810Z,38.25
2024-02-15T12:13:21.288Z,38.03
2024-02-15T12:14:42.155Z,38.00
2024-02-15T12:16:21.245Z,38.40
2024-02-15T12:17:43.729Z,38.82
2024-02-15T12:18:49.000Z,38.48
2024-02-15T12:19:52.916Z,38.48
2024-02-15T12:20:55.904Z,38.32
2024-02-15T12:21:59.091Z,38.23
2024-02-15T12:23:01.826Z,38.39
2024-02-15T12:24:07.264Z,38.08
2024-02-15T12:25:15.152Z,38.03
2024-02-15T12:26:25.195Z,37.79
2024-02-15T12:27:31.411Z,38.06
2024-02-15T12:28:33.036Z,38.00
2024-02-15T12:29:36.449Z,38.02
2024-02-15T12:30:38.957Z,37.98
2024-02-15T12:31:40.762Z,38.34
2024-02-15T12:32:42.690Z,38.37
2024-02-15T12:33:45.798Z,37.49
2024-02-15T12:34:48.553Z,37.77
2024-02-15T12:35:52.264Z,37.65
2024-02-15T12:37:10.723Z,37.35
2024-02-15T12:38:17.375Z,37.53
2024-02-15T12:39:26.588Z,37.46
2024-02-15T12:40:35.260Z,37.83
2024-02-15T12:41:41.333Z,37.48
2024-02-15T12:42:45.355Z,37.66
2024-02-15T12:43:47.553Z,37.31
2024-02-15T12:44:49.806Z,37.50
2024-02-15T12:45:51.548Z,37.67
2024-02-15T12:47:01.251Z,37.58
2024-02-15T12:48:05.468Z,37.52
2024-02-15T12:49:16.565Z,37.21
2024-02-15T12:50:20.950Z,37.72
2024-02-15T12:51:22.639Z,37.79
2024-02-15T12:52:38.217Z,37.66
2024-02-15T12:53:39.835Z,37.78
2024-02-15T12:54:43.096Z,38.22
2024-02-15T12:55:44.869Z,37.34
2024-02-15T12:56:46.625Z,37.62
2024-02-15T12:57:52.701Z,37.24
2024-02-15T12:58:54.540Z,37.00
2024-02-15T12:59:56.221Z,37.73
2024-02-15T13:01:00.014Z,37.63
2024-02-15T13:02:01.891Z,38.13
2024-02-15T13:03:05.273Z,37.13
2024-02-15T13:04:08.060Z,37.04
2024-02-15T13:05:09.853Z,37.22
2024-02-15T13:06:11.483Z,37.78
2024-02-15T13:07:14.920Z,38.05
2024-02-15T13:08:19.111Z,37.31
2024-02-15T13:09:23.527Z,37.55
2024-02-15T13:10:25.661Z,37.71
2024-02-15T13:11:27.371Z,37.43
2024-02-15T13:12:29.743Z,37.44
2024-02-15T13:13:31.497Z,37.37
2024-02-15T13:14:33.198Z,37.76
2024-02-15T13:15:35.542Z,38.04
2024-02-15T13:16:38.187Z,38.08
2024-02-15T13:17:39.928Z,37.98
2024-02-15T13:18:42.456Z,37.91
2024-02-15T13:19:50.691Z,38.12
2024-02-15T13:20:54.103Z,37.54
2024-02-15T13:21:58.773Z,37.48
2024-02-15T13:23:15.591Z,37.88
2024-02-15T13:24:18.510Z,37.74
2024-02-15T13:25:22.259Z,37.64
2024-02-15T13:26:26.766Z,38.09
2024-02-15T13:27:28.543Z,37.46
2024-02-15T13:28:30.125Z,37.67
2024-02-15T13:29:33.960Z,37.48
2024-02-15T13:30:36.915Z,37.47
2024-02-15T13:31:38.583Z,37.43
2024-02-15T13:32:44.548Z,37.56
2024-02-15T13:33:48.585Z,38.01
2024-02-15T13:34:55.804Z,38.29
2024-02-15T13:35:57.416Z,38.32
2024-02-15T13:36:59.734Z,37.98
2024-02-15T13:38:01.375Z,37.99
2024-02-15T13:39:05.803Z,37.59
2024-02-15T13:40:16.135Z,37.69
2024-02-15T13:41:17.812Z,37.89
2024-02-15T13:42:19.479Z,37.55
2024-02-15T13:43:21.129Z,37.58
2024-02-15T13:44:24.814Z,37.84
2024-02-15T13:45:43.665Z,37.81